sensor_id;sensor_type;location;lat;lon;timestamp;pressure;altitude;pressure_sealevel;temperature;humidity
70127;BME280;57491;42.694;23.314;2023-01-08T09:02:29;95651.50;;;17.45;29.02
70127;BME280;57491;42.694;23.314;2023-01-08T09:04:56;95650.03;;;17.68;29.32
70127;BME280;57491;42.694;23.314;2023-01-08T09:07:24;95651.53;;;17.96;28.35
70127;BME280;57491;42.694;23.314;2023-01-08T09:09:51;95641.25;;;17.88;28.54
70127;BME280;57491;42.694;23.314;2023-01-08T09:12:22;95642.22;;;17.93;28.85
70127;BME280;57491;42.694;23.314;2023-01-08T09:14:50;95639.50;;;18.38;28.13
70127;BME280;57491;42.694;23.314;2023-01-08T09:17:19;95632.84;;;18.91;26.80
70127;BME280;57491;42.694;23.314;2023-01-08T09:19:48;95635.50;;;19.09;26.96
70127;BME280;57491;42.694;23.314;2023-01-08T09:22:15;95624.63;;;19.42;26.64
70127;BME280;57491;42.694;23.314;2023-01-08T09:31:45;95620.22;;;21.09;24.42
70127;BME280;57491;42.694;23.314;2023-01-08T09:41:43;95605.88;;;22.53;22.54
70127;BME280;57491;42.694;23.314;2023-01-08T09:51:49;95587.56;;;23.40;21.78
70127;BME280;57491;42.694;23.314;2023-01-08T12:03:15;95431.50;;;34.59;11.51
70127;BME280;57491;42.694;23.314;2023-01-08T12:05:54;95429.06;;;34.83;11.01
70127;BME280;57491;42.694;23.314;2023-01-08T12:08:29;95414.88;;;34.40;11.53
70127;BME280;57491;42.694;23.314;2023-01-08T12:11:06;95391.72;;;34.13;11.45
70127;BME280;57491;42.694;23.314;2023-01-08T12:13:54;95420.50;;;34.81;11.47
70127;BME280;57491;42.694;23.314;2023-01-08T12:16:39;95409.81;;;34.38;11.36
70127;BME280;57491;42.694;23.314;2023-01-08T12:19:21;95407.03;;;34.64;11.42
70127;BME280;57491;42.694;23.314;2023-01-08T12:22:02;95404.09;;;34.40;11.60
70127;BME280;57491;42.694;23.314;2023-01-08T12:38:20;95390.19;;;33.86;12.00
70127;BME280;57491;42.694;23.314;2023-01-08T12:40:50;95387.28;;;33.57;12.25
70127;BME280;57491;42.694;23.314;2023-01-08T12:43:23;95385.00;;;33.25;12.35
70127;BME280;57491;42.694;23.314;2023-01-08T12:45:54;95376.31;;;34.14;11.89
70127;BME280;57491;42.694;23.314;2023-01-08T12:48:25;95385.59;;;34.59;11.50
70127;BME280;57491;42.694;23.314;2023-01-08T12:51:00;95377.00;;;33.85;12.10
70127;BME280;57491;42.694;23.314;2023-01-08T12:53:39;95371.91;;;34.64;11.26
70127;BME280;57491;42.694;23.314;2023-01-08T12:56:10;95375.84;;;34.12;11.84
70127;BME280;57491;42.694;23.314;2023-01-08T12:58:57;95373.31;;;34.24;11.60
70127;BME280;57491;42.694;23.314;2023-01-08T13:01:31;95370.13;;;34.04;11.67
70127;BME280;57491;42.694;23.314;2023-01-08T13:04:03;95356.03;;;33.47;12.14
70127;BME280;57491;42.694;23.314;2023-01-08T13:06:30;95363.97;;;33.95;12.01
70127;BME280;57491;42.694;23.314;2023-01-08T13:08:59;95352.69;;;33.25;12.20
70127;BME280;57491;42.694;23.314;2023-01-08T13:11:28;95339.25;;;32.85;12.46
70127;BME280;57491;42.694;23.314;2023-01-08T13:14:01;95366.34;;;33.37;12.19
70127;BME280;57491;42.694;23.314;2023-01-08T13:16:29;95359.03;;;32.72;13.17
70127;BME280;57491;42.694;23.314;2023-01-08T13:18:59;95337.44;;;32.24;13.05
70127;BME280;57491;42.694;23.314;2023-01-08T13:50:43;95352.53;;;30.49;14.35
70127;BME280;57491;42.694;23.314;2023-01-08T13:53:13;95351.47;;;30.18;14.13
70127;BME280;57491;42.694;23.314;2023-01-08T13:55:42;95355.84;;;30.60;14.28
70127;BME280;57491;42.694;23.314;2023-01-08T13:58:15;95355.25;;;30.03;14.67
70127;BME280;57491;42.694;23.314;2023-01-08T14:00:47;95325.41;;;29.72;14.93
70127;BME280;57491;42.694;23.314;2023-01-08T14:03:23;95344.72;;;29.37;14.93
70127;BME280;57491;42.694;23.314;2023-01-08T14:05:51;95350.97;;;28.90;15.46
70127;BME280;57491;42.694;23.314;2023-01-08T14:08:22;95346.63;;;28.46;15.87
70127;BME280;57491;42.694;23.314;2023-01-08T14:10:50;95351.38;;;28.54;15.93
70127;BME280;57491;42.694;23.314;2023-01-08T14:13:21;95338.69;;;28.41;16.00
70127;BME280;57491;42.694;23.314;2023-01-08T14:15:51;95341.84;;;28.43;15.99
70127;BME280;57491;42.694;23.314;2023-01-08T14:18:19;95342.44;;;28.40;16.12
70127;BME280;57491;42.694;23.314;2023-01-08T14:20:49;95348.22;;;28.23;16.22
70127;BME280;57491;42.694;23.314;2023-01-08T14:23:20;95334.91;;;28.42;15.92
70127;BME280;57491;42.694;23.314;2023-01-08T14:25:49;95335.22;;;28.07;16.39
70127;BME280;57491;42.694;23.314;2023-01-08T14:28:19;95335.41;;;27.58;16.96
70127;BME280;57491;42.694;23.314;2023-01-08T14:30:47;95322.69;;;26.16;17.99
70127;BME280;57491;42.694;23.314;2023-01-08T14:33:18;95332.34;;;24.69;19.50
70127;BME280;57491;42.694;23.314;2023-01-08T14:35:47;95312.66;;;23.12;21.04
70127;BME280;57491;42.694;23.314;2023-01-08T14:38:16;95341.56;;;21.88;22.89
70127;BME280;57491;42.694;23.314;2023-01-08T14:40:46;95329.16;;;20.82;24.19
70127;BME280;57491;42.694;23.314;2023-01-08T14:43:17;95322.47;;;19.88;25.74
70127;BME280;57491;42.694;23.314;2023-01-08T14:45:47;95327.94;;;19.10;27.11
70127;BME280;57491;42.694;23.314;2023-01-08T14:48:20;95328.38;;;18.29;28.59
70127;BME280;57491;42.694;23.314;2023-01-08T14:51:02;95332.75;;;17.56;29.53
70127;BME280;57491;42.694;23.314;2023-01-08T14:53:32;95308.56;;;16.91;30.24
70127;BME280;57491;42.694;23.314;2023-01-08T14:56:03;95321.72;;;16.46;31.22
70127;BME280;57491;42.694;23.314;2023-01-08T14:58:37;95325.88;;;16.03;31.74
70127;BME280;57491;42.694;23.314;2023-01-08T15:01:07;95324.34;;;15.62;33.13
70127;BME280;57491;42.694;23.314;2023-01-08T15:03:42;95295.34;;;15.11;33.71
70127;BME280;57491;42.694;23.314;2023-01-08T15:06:10;95319.88;;;14.91;34.16
70127;BME280;57491;42.694;23.314;2023-01-08T15:08:39;95322.44;;;14.58;34.80
70127;BME280;57491;42.694;23.314;2023-01-08T15:11:19;95320.09;;;14.28;36.37
70127;BME280;57491;42.694;23.314;2023-01-08T15:13:48;95322.63;;;14.09;36.46
70127;BME280;57491;42.694;23.314;2023-01-08T15:16:19;95311.03;;;13.83;37.38
70127;BME280;57491;42.694;23.314;2023-01-08T15:18:59;95320.88;;;13.81;37.17
70127;BME280;57491;42.694;23.314;2023-01-08T15:21:27;95326.16;;;13.60;37.34
70127;BME280;57491;42.694;23.314;2023-01-08T15:23:55;95328.41;;;13.35;38.59
70127;BME280;57491;42.694;23.314;2023-01-08T15:26:23;95300.03;;;13.05;38.27
70127;BME280;57491;42.694;23.314;2023-01-08T15:28:53;95335.09;;;13.17;38.71
70127;BME280;57491;42.694;23.314;2023-01-08T15:31:25;95323.25;;;13.00;39.84
70127;BME280;57491;42.694;23.314;2023-01-08T15:33:55;95318.28;;;12.83;40.23
70127;BME280;57491;42.694;23.314;2023-01-08T15:36:22;95324.81;;;12.73;40.27
70127;BME280;57491;42.694;23.314;2023-01-08T15:38:50;95336.19;;;12.65;40.75
70127;BME280;57491;42.694;23.314;2023-01-08T15:41:19;95320.94;;;12.47;42.34
70127;BME280;57491;42.694;23.314;2023-01-08T15:44:08;95291.53;;;12.18;42.29
70127;BME280;57491;42.694;23.314;2023-01-08T15:46:34;95333.75;;;12.28;42.34
70127;BME280;57491;42.694;23.314;2023-01-08T15:49:03;95329.00;;;12.17;43.36
70127;BME280;57491;42.694;23.314;2023-01-08T15:51:32;95316.00;;;12.02;43.57
70127;BME280;57491;42.694;23.314;2023-01-08T15:54:00;95322.22;;;11.86;44.39
70127;BME280;57491;42.694;23.314;2023-01-08T15:56:27;95300.09;;;11.68;44.18
70127;BME280;57491;42.694;23.314;2023-01-08T15:58:54;95322.72;;;11.67;44.70
70127;BME280;57491;42.694;23.314;2023-01-08T16:01:22;95325.94;;;11.54;45.35
70127;BME280;57491;42.694;23.314;2023-01-08T16:03:49;95325.88;;;11.48;45.34
70127;BME280;57491;42.694;23.314;2023-01-08T16:06:19;95321.59;;;11.32;45.28
70127;BME280;57491;42.694;23.314;2023-01-08T16:08:46;95335.50;;;11.25;46.09
70127;BME280;57491;42.694;23.314;2023-01-08T16:11:15;95325.50;;;11.13;46.55
70127;BME280;57491;42.694;23.314;2023-01-08T16:13:44;95325.13;;;11.02;46.57
70127;BME280;57491;42.694;23.314;2023-01-08T16:16:13;95299.97;;;10.80;46.78
70127;BME280;57491;42.694;23.314;2023-01-08T16:18:43;95326.63;;;10.96;46.87
70127;BME280;57491;42.694;23.314;2023-01-08T16:21:10;95274.06;;;10.63;47.66
70127;BME280;57491;42.694;23.314;2023-01-08T16:23:39;95325.91;;;10.88;47.40
70127;BME280;57491;42.694;23.314;2023-01-08T16:26:08;95316.38;;;10.80;47.21
70127;BME280;57491;42.694;23.314;2023-01-08T16:28:36;95313.19;;;10.70;47.25
70127;BME280;57491;42.694;23.314;2023-01-08T16:31:04;95325.72;;;10.66;47.93
70127;BME280;57491;42.694;23.314;2023-01-08T16:33:32;95317.50;;;10.55;48.38
70127;BME280;57491;42.694;23.314;2023-01-08T16:36:01;95333.56;;;10.58;48.50
70127;BME280;57491;42.694;23.314;2023-01-08T16:38:28;95325.00;;;10.50;49.67
70127;BME280;57491;42.694;23.314;2023-01-08T16:40:57;95292.66;;;10.29;49.63
70127;BME280;57491;42.694;23.314;2023-01-08T16:43:27;95320.50;;;10.44;49.65
70127;BME280;57491;42.694;23.314;2023-01-08T16:45:55;95327.03;;;10.40;49.37
70127;BME280;57491;42.694;23.314;2023-01-08T16:48:28;95327.38;;;10.37;49.76
70127;BME280;57491;42.694;23.314;2023-01-08T16:51:03;95339.09;;;10.33;49.62
70127;BME280;57491;42.694;23.314;2023-01-08T16:53:30;95331.34;;;10.24;49.70
70127;BME280;57491;42.694;23.314;2023-01-08T16:55:59;95334.75;;;10.25;50.35
70127;BME280;57491;42.694;23.314;2023-01-08T16:58:26;95279.09;;;9.80;50.59
70127;BME280;57491;42.694;23.314;2023-01-08T17:00:54;95341.09;;;10.14;50.79
70127;BME280;57491;42.694;23.314;2023-01-08T17:03:21;95331.72;;;10.05;51.25
70127;BME280;57491;42.694;23.314;2023-01-08T17:05:49;95341.50;;;9.95;50.99
70127;BME280;57491;42.694;23.314;2023-01-08T17:08:16;95305.25;;;9.71;51.40
70127;BME280;57491;42.694;23.314;2023-01-08T17:10:45;95302.50;;;9.64;51.14
70127;BME280;57491;42.694;23.314;2023-01-08T17:13:13;95345.75;;;9.88;50.33
70127;BME280;57491;42.694;23.314;2023-01-08T17:15:41;95342.53;;;9.86;49.51
70127;BME280;57491;42.694;23.314;2023-01-08T17:18:08;95341.09;;;9.75;49.62
70127;BME280;57491;42.694;23.314;2023-01-08T17:20:35;95334.16;;;9.60;49.52
70127;BME280;57491;42.694;23.314;2023-01-08T17:23:02;95352.13;;;9.69;49.92
70127;BME280;57491;42.694;23.314;2023-01-08T17:25:30;95353.31;;;9.59;50.39
70127;BME280;57491;42.694;23.314;2023-01-08T17:27:57;95341.97;;;9.44;51.32
70127;BME280;57491;42.694;23.314;2023-01-08T17:30:25;95358.84;;;9.48;51.62
70127;BME280;57491;42.694;23.314;2023-01-08T17:32:52;95360.94;;;9.52;51.98
70127;BME280;57491;42.694;23.314;2023-01-08T17:35:19;95359.19;;;9.45;52.44
70127;BME280;57491;42.694;23.314;2023-01-08T17:37:46;95339.56;;;9.26;49.81
70127;BME280;57491;42.694;23.314;2023-01-08T17:40:14;95371.97;;;9.38;49.88
70127;BME280;57491;42.694;23.314;2023-01-08T17:42:41;95375.41;;;9.30;50.10
70127;BME280;57491;42.694;23.314;2023-01-08T17:45:09;95361.44;;;9.23;52.55
70127;BME280;57491;42.694;23.314;2023-01-08T17:47:38;95373.63;;;9.23;51.96
70127;BME280;57491;42.694;23.314;2023-01-08T17:50:05;95370.22;;;9.22;52.97
70127;BME280;57491;42.694;23.314;2023-01-08T17:52:32;95372.50;;;9.17;52.23
70127;BME280;57491;42.694;23.314;2023-01-08T17:55:01;95379.28;;;9.10;52.00
70127;BME280;57491;42.694;23.314;2023-01-08T17:57:28;95380.59;;;9.06;51.25
70127;BME280;57491;42.694;23.314;2023-01-08T17:59:56;95381.25;;;9.08;53.19
70127;BME280;57491;42.694;23.314;2023-01-08T18:02:23;95373.44;;;8.92;53.84
70127;BME280;57491;42.694;23.314;2023-01-08T18:04:52;95325.63;;;8.46;53.50
70127;BME280;57491;42.694;23.314;2023-01-08T18:07:19;95310.22;;;8.36;53.71
70127;BME280;57491;42.694;23.314;2023-01-08T18:09:48;95370.56;;;8.87;52.98
70127;BME280;57491;42.694;23.314;2023-01-08T18:12:17;95393.91;;;8.95;54.56
70127;BME280;57491;42.694;23.314;2023-01-08T18:14:44;95398.09;;;8.88;54.07
70127;BME280;57491;42.694;23.314;2023-01-08T18:17:11;95400.03;;;8.86;53.67
70127;BME280;57491;42.694;23.314;2023-01-08T18:19:38;95393.72;;;8.80;54.09
70127;BME280;57491;42.694;23.314;2023-01-08T18:22:07;95385.09;;;8.64;52.47
70127;BME280;57491;42.694;23.314;2023-01-08T18:24:34;95400.19;;;8.76;52.75
70127;BME280;57491;42.694;23.314;2023-01-08T18:27:01;95396.59;;;8.69;53.89
70127;BME280;57491;42.694;23.314;2023-01-08T18:29:28;95391.88;;;8.57;52.55
70127;BME280;57491;42.694;23.314;2023-01-08T18:31:55;95399.97;;;8.54;51.58
70127;BME280;57491;42.694;23.314;2023-01-08T18:34:22;95399.19;;;8.19;52.42
70127;BME280;57491;42.694;23.314;2023-01-08T18:36:49;95395.28;;;8.15;53.98
70127;BME280;57491;42.694;23.314;2023-01-08T18:39:18;95346.09;;;7.81;53.27
70127;BME280;57491;42.694;23.314;2023-01-08T18:41:46;95399.13;;;8.03;52.90
70127;BME280;57491;42.694;23.314;2023-01-08T18:44:30;95402.63;;;7.94;52.86
70127;BME280;57491;42.694;23.314;2023-01-08T18:46:57;95404.13;;;7.71;54.24
70127;BME280;57491;42.694;23.314;2023-01-08T18:49:24;95398.34;;;7.77;53.88
70127;BME280;57491;42.694;23.314;2023-01-08T18:51:52;95404.34;;;7.77;53.74
70127;BME280;57491;42.694;23.314;2023-01-08T18:54:20;95410.50;;;7.84;53.21
70127;BME280;57491;42.694;23.314;2023-01-08T18:56:48;95410.56;;;7.67;53.64
70127;BME280;57491;42.694;23.314;2023-01-08T18:59:15;95403.75;;;7.66;53.94
70127;BME280;57491;42.694;23.314;2023-01-08T19:01:42;95383.53;;;7.61;54.44
70127;BME280;57491;42.694;23.314;2023-01-08T19:04:13;95397.00;;;7.65;53.94
70127;BME280;57491;42.694;23.314;2023-01-08T19:06:41;95419.50;;;7.72;53.75
70127;BME280;57491;42.694;23.314;2023-01-08T19:09:08;95421.94;;;7.74;53.57
70127;BME280;57491;42.694;23.314;2023-01-08T19:11:36;95410.88;;;7.63;53.96
70127;BME280;57491;42.694;23.314;2023-01-08T19:14:03;95422.94;;;7.81;53.30
70127;BME280;57491;42.694;23.314;2023-01-08T19:16:30;95425.03;;;7.77;53.64
70127;BME280;57491;42.694;23.314;2023-01-08T19:18:58;95434.94;;;7.82;53.47
70127;BME280;57491;42.694;23.314;2023-01-08T19:21:25;95441.38;;;7.78;53.70
70127;BME280;57491;42.694;23.314;2023-01-08T19:23:52;95434.34;;;7.70;53.61
70127;BME280;57491;42.694;23.314;2023-01-08T19:26:19;95431.31;;;7.75;54.27
70127;BME280;57491;42.694;23.314;2023-01-08T19:28:47;95429.75;;;7.82;53.51
70127;BME280;57491;42.694;23.314;2023-01-08T19:31:17;95434.34;;;7.88;53.30
70127;BME280;57491;42.694;23.314;2023-01-08T19:33:44;95415.19;;;7.81;53.13
70127;BME280;57491;42.694;23.314;2023-01-08T19:36:12;95428.53;;;7.94;52.72
70127;BME280;57491;42.694;23.314;2023-01-08T19:38:41;95434.38;;;7.96;52.87
70127;BME280;57491;42.694;23.314;2023-01-08T19:41:08;95410.31;;;7.78;53.81
70127;BME280;57491;42.694;23.314;2023-01-08T19:43:58;95419.88;;;7.77;54.20
70127;BME280;57491;42.694;23.314;2023-01-08T19:46:24;95444.25;;;8.00;54.10
70127;BME280;57491;42.694;23.314;2023-01-08T19:48:55;95444.38;;;7.91;53.71
70127;BME280;57491;42.694;23.314;2023-01-08T19:51:22;95432.19;;;7.83;55.62
70127;BME280;57491;42.694;23.314;2023-01-08T19:53:50;95452.50;;;7.96;54.55
70127;BME280;57491;42.694;23.314;2023-01-08T19:56:17;95452.50;;;7.96;55.20
70127;BME280;57491;42.694;23.314;2023-01-08T19:58:45;95454.44;;;8.02;54.39
70127;BME280;57491;42.694;23.314;2023-01-08T20:01:14;95448.78;;;7.98;53.59
70127;BME280;57491;42.694;23.314;2023-01-08T20:03:42;95444.16;;;7.84;53.66
70127;BME280;57491;42.694;23.314;2023-01-08T20:06:11;95433.22;;;7.65;53.15
70127;BME280;57491;42.694;23.314;2023-01-08T20:08:40;95443.50;;;7.56;55.38
70127;BME280;57491;42.694;23.314;2023-01-08T20:11:11;95386.38;;;7.24;56.22
70127;BME280;57491;42.694;23.314;2023-01-08T20:13:39;95440.31;;;7.62;56.31
70127;BME280;57491;42.694;23.314;2023-01-08T20:16:10;95382.66;;;7.27;54.49
70127;BME280;57491;42.694;23.314;2023-01-08T20:18:39;95446.06;;;7.56;53.94
70127;BME280;57491;42.694;23.314;2023-01-08T20:21:08;95419.19;;;7.24;54.82
70127;BME280;57491;42.694;23.314;2023-01-08T20:23:36;95442.94;;;7.45;55.36
70127;BME280;57491;42.694;23.314;2023-01-08T20:26:05;95445.00;;;7.41;54.58
70127;BME280;57491;42.694;23.314;2023-01-08T20:28:33;95446.28;;;7.37;55.31
70127;BME280;57491;42.694;23.314;2023-01-08T20:31:04;95433.78;;;7.33;55.77
70127;BME280;57491;42.694;23.314;2023-01-08T20:33:32;95445.00;;;7.41;57.97
70127;BME280;57491;42.694;23.314;2023-01-08T20:36:02;95439.78;;;7.33;57.32
70127;BME280;57491;42.694;23.314;2023-01-08T20:38:32;95446.06;;;7.31;56.20
70127;BME280;57491;42.694;23.314;2023-01-08T20:40:59;95428.47;;;7.16;56.09
70127;BME280;57491;42.694;23.314;2023-01-08T20:43:27;95425.97;;;7.07;55.69
70127;BME280;57491;42.694;23.314;2023-01-08T20:45:54;95447.84;;;7.12;56.15
70127;BME280;57491;42.694;23.314;2023-01-08T20:48:21;95455.47;;;7.14;56.36
70127;BME280;57491;42.694;23.314;2023-01-08T20:50:53;95433.16;;;6.95;56.36
70127;BME280;57491;42.694;23.314;2023-01-08T20:53:22;95459.56;;;7.07;56.25
70127;BME280;57491;42.694;23.314;2023-01-08T20:55:50;95455.47;;;6.96;56.47
70127;BME280;57491;42.694;23.314;2023-01-08T20:58:17;95452.38;;;6.93;57.30
70127;BME280;57491;42.694;23.314;2023-01-08T21:00:44;95464.31;;;6.94;55.95
70127;BME280;57491;42.694;23.314;2023-01-08T21:03:11;95444.88;;;6.72;54.97
70127;BME280;57491;42.694;23.314;2023-01-08T21:05:39;95474.13;;;6.72;55.46
70127;BME280;57491;42.694;23.314;2023-01-08T21:08:08;95447.47;;;6.45;55.64
70127;BME280;57491;42.694;23.314;2023-01-08T21:10:37;95483.34;;;6.57;56.69
70127;BME280;57491;42.694;23.314;2023-01-08T21:13:05;95469.16;;;6.61;57.21
70127;BME280;57491;42.694;23.314;2023-01-08T21:15:34;95474.47;;;6.60;56.26
70127;BME280;57491;42.694;23.314;2023-01-08T21:18:01;95472.84;;;6.59;57.04
70127;BME280;57491;42.694;23.314;2023-01-08T21:20:28;95476.47;;;6.66;59.72
70127;BME280;57491;42.694;23.314;2023-01-08T21:22:55;95450.97;;;6.53;57.53
70127;BME280;57491;42.694;23.314;2023-01-08T21:25:25;95470.13;;;6.60;58.89
70127;BME280;57491;42.694;23.314;2023-01-08T21:27:53;95466.66;;;6.69;57.81
70127;BME280;57491;42.694;23.314;2023-01-08T21:30:21;95466.59;;;6.61;56.82
70127;BME280;57491;42.694;23.314;2023-01-08T21:32:48;95470.50;;;6.65;56.80
70127;BME280;57491;42.694;23.314;2023-01-08T21:35:15;95465.75;;;6.61;57.65
70127;BME280;57491;42.694;23.314;2023-01-08T21:37:42;95428.38;;;6.38;56.76
70127;BME280;57491;42.694;23.314;2023-01-08T21:40:10;95469.44;;;6.58;57.05
70127;BME280;57491;42.694;23.314;2023-01-08T21:42:38;95468.25;;;6.53;57.42
70127;BME280;57491;42.694;23.314;2023-01-08T21:45:24;95473.88;;;6.48;57.30
70127;BME280;57491;42.694;23.314;2023-01-08T21:47:52;95480.50;;;6.51;60.68
70127;BME280;57491;42.694;23.314;2023-01-08T21:50:20;95473.19;;;6.46;60.20
70127;BME280;57491;42.694;23.314;2023-01-08T21:52:50;95471.16;;;6.40;59.14
70127;BME280;57491;42.694;23.314;2023-01-08T21:55:34;95470.91;;;6.43;60.11
70127;BME280;57491;42.694;23.314;2023-01-08T21:58:02;95448.94;;;6.30;58.90
70127;BME280;57491;42.694;23.314;2023-01-08T22:00:30;95473.59;;;6.42;58.00
70127;BME280;57491;42.694;23.314;2023-01-08T22:02:57;95467.34;;;6.44;58.44
70127;BME280;57491;42.694;23.314;2023-01-08T22:05:25;95474.81;;;6.47;58.13
70127;BME280;57491;42.694;23.314;2023-01-08T22:07:52;95471.47;;;6.37;57.77
70127;BME280;57491;42.694;23.314;2023-01-08T22:10:19;95473.94;;;6.29;58.51
70127;BME280;57491;42.694;23.314;2023-01-08T22:12:46;95469.31;;;6.33;59.01
70127;BME280;57491;42.694;23.314;2023-01-08T22:15:14;95461.44;;;6.34;59.08
70127;BME280;57491;42.694;23.314;2023-01-08T22:17:42;95462.75;;;6.38;59.13
70127;BME280;57491;42.694;23.314;2023-01-08T22:20:10;95440.50;;;6.27;59.78
70127;BME280;57491;42.694;23.314;2023-01-08T22:22:37;95461.38;;;6.44;60.23
70127;BME280;57491;42.694;23.314;2023-01-08T22:25:06;95445.94;;;6.34;60.47
70127;BME280;57491;42.694;23.314;2023-01-08T22:27:34;95455.19;;;6.27;58.64
70127;BME280;57491;42.694;23.314;2023-01-08T22:30:01;95418.44;;;6.15;58.95
70127;BME280;57491;42.694;23.314;2023-01-08T22:32:28;95440.00;;;6.24;58.29
70127;BME280;57491;42.694;23.314;2023-01-08T22:34:56;95433.44;;;6.30;59.52
70127;BME280;57491;42.694;23.314;2023-01-08T22:37:24;95446.50;;;6.28;60.95
70127;BME280;57491;42.694;23.314;2023-01-08T22:39:51;95454.38;;;6.26;60.41
70127;BME280;57491;42.694;23.314;2023-01-08T22:42:18;95450.75;;;6.19;58.69
70127;BME280;57491;42.694;23.314;2023-01-08T22:44:45;95453.50;;;6.08;58.40
70127;BME280;57491;42.694;23.314;2023-01-08T22:47:12;95438.88;;;5.99;58.64
70127;BME280;57491;42.694;23.314;2023-01-08T22:49:39;95442.84;;;5.94;58.65
70127;BME280;57491;42.694;23.314;2023-01-08T22:52:07;95368.97;;;5.46;59.58
70127;BME280;57491;42.694;23.314;2023-01-08T22:54:36;95439.59;;;5.92;61.56
70127;BME280;57491;42.694;23.314;2023-01-08T22:57:03;95443.09;;;5.91;61.27
70127;BME280;57491;42.694;23.314;2023-01-08T22:59:30;95429.69;;;5.87;61.72
70127;BME280;57491;42.694;23.314;2023-01-08T23:01:57;95435.25;;;5.92;61.30
70127;BME280;57491;42.694;23.314;2023-01-08T23:04:24;95432.53;;;5.94;60.73
70127;BME280;57491;42.694;23.314;2023-01-08T23:06:51;95431.97;;;5.90;59.63
70127;BME280;57491;42.694;23.314;2023-01-08T23:09:20;95441.34;;;5.81;58.89
70127;BME280;57491;42.694;23.314;2023-01-08T23:11:47;95417.47;;;5.79;61.96
70127;BME280;57491;42.694;23.314;2023-01-08T23:14:14;95429.41;;;5.80;60.98
70127;BME280;57491;42.694;23.314;2023-01-08T23:16:42;95415.16;;;5.76;59.15
70127;BME280;57491;42.694;23.314;2023-01-08T23:19:09;95420.59;;;5.73;59.85
70127;BME280;57491;42.694;23.314;2023-01-08T23:21:36;95411.41;;;5.61;61.05
70127;BME280;57491;42.694;23.314;2023-01-08T23:24:05;95416.38;;;5.72;62.51
70127;BME280;57491;42.694;23.314;2023-01-08T23:26:34;95424.91;;;5.82;62.19
70127;BME280;57491;42.694;23.314;2023-01-08T23:29:01;95417.88;;;5.84;60.22
70127;BME280;57491;42.694;23.314;2023-01-08T23:31:29;95417.88;;;5.75;59.13
70127;BME280;57491;42.694;23.314;2023-01-08T23:33:57;95371.03;;;5.43;58.94
70127;BME280;57491;42.694;23.314;2023-01-08T23:36:24;95416.56;;;5.61;58.94
70127;BME280;57491;42.694;23.314;2023-01-08T23:38:52;95420.38;;;5.57;60.09
70127;BME280;57491;42.694;23.314;2023-01-08T23:41:22;95409.16;;;5.49;61.66
70127;BME280;57491;42.694;23.314;2023-01-08T23:43:52;95413.34;;;5.50;59.75
70127;BME280;57491;42.694;23.314;2023-01-08T23:46:19;95408.16;;;5.50;60.25
70127;BME280;57491;42.694;23.314;2023-01-08T23:48:46;95408.34;;;5.48;59.53
70127;BME280;57491;42.694;23.314;2023-01-08T23:51:15;95413.63;;;5.47;58.59
70127;BME280;57491;42.694;23.314;2023-01-08T23:53:42;95396.13;;;5.40;59.93
70127;BME280;57491;42.694;23.314;2023-01-08T23:56:09;95411.31;;;5.44;61.26
70127;BME280;57491;42.694;23.314;2023-01-08T23:58:37;95394.34;;;5.41;61.71
